createdAt,value
2018-04-15T00:00:41.858Z,94.46
2018-04-15T00:01:41.952Z,93.51
2018-04-15T00:02:41.953Z,93.89
2018-04-15T00:03:42.001Z,93.70
2018-04-15T00:04:42.047Z,93.70
2018-04-15T00:05:42.097Z,93.70
2018-04-15T00:06:42.172Z,93.70
2018-04-15T00:07:42.188Z,93.32
2018-04-15T00:08:42.235Z,93.60
2018-04-15T00:09:42.283Z,93.70
2018-04-15T00:10:42.330Z,94.08
2018-04-15T00:11:42.400Z,93.98
2018-04-15T00:12:42.422Z,94.37
2018-04-15T00:13:42.472Z,93.79
2018-04-15T00:14:42.540Z,94.27
2018-04-15T00:15:42.563Z,93.32
2018-04-15T00:16:42.611Z,93.22
2018-04-15T00:17:42.655Z,92.94
2018-04-15T00:18:42.704Z,92.55
2018-04-15T00:19:42.775Z,92.55
2018-04-15T00:20:42.795Z,92.94
2018-04-15T00:21:42.844Z,93.70
2018-04-15T00:22:42.912Z,93.13
2018-04-15T00:23:42.937Z,93.08
2018-04-15T00:24:42.985Z,93.37
2018-04-15T00:25:43.031Z,93.55
2018-04-15T00:26:43.079Z,94.22
2018-04-15T00:27:43.159Z,95.75
2018-04-15T00:28:43.170Z,96.41
2018-04-15T00:29:43.221Z,97.08
2018-04-15T00:30:43.266Z,97.17
2018-04-15T00:31:43.313Z,97.74
2018-04-15T00:32:43.385Z,97.93
2018-04-15T00:33:43.409Z,98.22
2018-04-15T00:34:43.454Z,97.84
2018-04-15T00:35:43.500Z,98.50
2018-04-15T00:36:43.568Z,97.84
2018-04-15T00:37:43.629Z,98.32
2018-04-15T00:38:43.641Z,98.32
2018-04-15T00:39:43.686Z,98.41
2018-04-15T00:40:43.731Z,98.32
2018-04-15T00:41:43.778Z,97.84
2018-04-15T00:42:43.851Z,97.74
2018-04-15T00:44:19.411Z,98.60
2018-04-15T00:44:43.922Z,98.98
2018-04-15T00:45:43.965Z,98.22
2018-04-15T00:46:44.015Z,97.08
2018-04-15T00:47:44.057Z,96.70
2018-04-15T00:48:44.130Z,97.74
2018-04-15T00:49:44.152Z,97.93
2018-04-15T00:50:44.197Z,98.08
2018-04-15T00:51:44.243Z,98.83
2018-04-15T00:52:44.290Z,98.74
2018-04-15T00:53:44.373Z,99.02
2018-04-15T00:54:44.385Z,99.60
2018-04-15T00:55:44.430Z,99.50
2018-04-15T00:56:44.476Z,99.99
2018-04-15T00:57:44.522Z,99.99
2018-04-15T00:58:44.597Z,99.50
2018-04-15T00:59:44.625Z,99.41
2018-04-15T01:00:44.688Z,99.79
2018-04-15T01:01:44.710Z,99.69
2018-04-15T01:02:44.759Z,99.99
2018-04-15T01:03:44.802Z,99.99
2018-04-15T01:04:44.876Z,99.99
2018-04-15T01:05:44.898Z,99.99
2018-04-15T01:06:44.943Z,99.99
2018-04-15T01:07:44.991Z,99.99
2018-04-15T01:08:45.036Z,99.99
2018-04-15T01:09:45.103Z,99.99
2018-04-15T01:10:45.154Z,99.99
2018-04-15T01:11:45.173Z,99.99
2018-04-15T01:12:45.221Z,99.99
2018-04-15T01:13:45.265Z,99.99
2018-04-15T01:14:45.314Z,99.99
2018-04-15T01:15:45.382Z,99.99
2018-04-15T01:16:45.406Z,99.99
2018-04-15T01:17:45.451Z,99.99
2018-04-15T01:18:45.501Z,99.99
2018-04-15T01:19:45.545Z,99.99
2018-04-15T01:20:45.617Z,99.99
2018-04-15T01:21:45.661Z,99.99
2018-04-15T01:22:45.682Z,99.99
2018-04-15T01:23:45.728Z,99.99
2018-04-15T01:24:45.773Z,99.99
2018-04-15T01:25:45.821Z,99.99
2018-04-15T01:26:45.888Z,99.99
2018-04-15T01:27:45.914Z,99.99
2018-04-15T01:28:45.960Z,99.99
2018-04-15T01:29:46.003Z,99.99
2018-04-15T01:30:46.086Z,99.99
2018-04-15T01:31:46.099Z,99.99
2018-04-15T01:32:46.143Z,99.99
2018-04-15T01:33:46.192Z,99.99
2018-04-15T01:34:46.235Z,99.99
2018-04-15T01:35:46.307Z,99.99
2018-04-15T01:36:46.330Z,99.99
2018-04-15T01:37:46.401Z,99.99
2018-04-15T01:38:46.427Z,99.99
2018-04-15T01:39:46.468Z,99.99
2018-04-15T01:40:46.513Z,99.99
2018-04-15T01:41:46.559Z,99.99
2018-04-15T01:42:46.642Z,99.99
2018-04-15T01:43:46.652Z,99.99
2018-04-15T01:44:46.696Z,99.99
2018-04-15T01:45:46.744Z,99.99
2018-04-15T01:46:46.793Z,99.99
2018-04-15T01:47:46.873Z,99.99
2018-04-15T01:48:46.881Z,99.99
2018-04-15T01:49:46.931Z,99.99
2018-04-15T01:50:46.976Z,99.99
2018-04-15T01:51:47.022Z,99.99
2018-04-15T01:52:47.102Z,99.99
2018-04-15T01:53:47.126Z,99.99
2018-04-15T01:54:47.161Z,99.99
2018-04-15T01:55:47.204Z,99.99
2018-04-15T01:56:47.250Z,99.99
2018-04-15T01:57:47.321Z,99.99
2018-04-15T01:58:47.345Z,99.99
2018-04-15T01:59:47.413Z,99.99
2018-04-15T02:00:47.435Z,99.99
2018-04-15T02:01:47.484Z,99.99
2018-04-15T02:02:47.530Z,99.99
2018-04-15T02:03:47.574Z,99.99
2018-04-15T02:04:47.652Z,99.99
2018-04-15T02:05:47.672Z,99.99
2018-04-15T02:06:47.716Z,99.99
2018-04-15T02:07:47.759Z,99.99
2018-04-15T02:08:47.803Z,99.99
2018-04-15T02:09:47.892Z,99.99
2018-04-15T02:10:47.902Z,99.99
2018-04-15T02:11:47.944Z,99.99
2018-04-15T02:12:47.990Z,99.99
2018-04-15T02:13:48.036Z,99.99
2018-04-15T02:14:48.118Z,99.99
2018-04-15T02:15:48.131Z,99.99
2018-04-15T02:16:48.176Z,99.99
2018-04-15T02:17:48.224Z,99.99
2018-04-15T02:18:48.267Z,99.99
2018-04-15T02:19:48.422Z,99.99
2018-04-15T02:20:48.359Z,99.99
2018-04-15T02:21:48.405Z,99.99
2018-04-15T02:22:48.455Z,99.99
2018-04-15T02:23:48.514Z,99.99
2018-04-15T02:24:48.574Z,99.99
2018-04-15T02:25:48.593Z,99.99
2018-04-15T02:26:48.639Z,99.99
2018-04-15T02:27:48.681Z,99.99
2018-04-15T02:28:48.727Z,99.99
2018-04-15T02:29:48.834Z,99.99
2018-04-15T02:30:48.820Z,99.99
2018-04-15T02:31:48.892Z,99.99
2018-04-15T02:32:48.910Z,99.99
2018-04-15T02:33:48.959Z,99.99
2018-04-15T02:34:49.004Z,99.99
2018-04-15T02:35:49.074Z,99.99
2018-04-15T02:36:49.100Z,99.99
2018-04-15T02:37:49.142Z,99.99
2018-04-15T02:38:49.188Z,99.99
2018-04-15T02:39:49.233Z,99.99
2018-04-15T02:40:49.302Z,99.99
2018-04-15T02:41:49.355Z,99.99
2018-04-15T02:42:49.372Z,99.99
2018-04-15T02:43:49.417Z,99.99
2018-04-15T02:44:49.463Z,99.99
2018-04-15T02:45:49.532Z,99.99
2018-04-15T02:46:49.556Z,99.99
2018-04-15T02:47:49.600Z,99.99
2018-04-15T02:48:49.644Z,99.99
2018-04-15T02:49:49.724Z,99.99
2018-04-15T02:50:49.739Z,99.99
2018-04-15T02:51:49.783Z,99.99
2018-04-15T02:52:49.828Z,99.99
2018-04-15T02:53:49.875Z,99.99
2018-04-15T02:54:49.952Z,99.99
2018-04-15T02:55:49.982Z,99.99
2018-04-15T02:56:50.016Z,99.99
2018-04-15T02:57:50.056Z,99.99
2018-04-15T02:58:50.116Z,99.99
2018-04-15T02:59:50.186Z,99.99
2018-04-15T03:00:50.193Z,99.99
2018-04-15T03:01:50.240Z,99.99
2018-04-15T03:02:50.288Z,99.99
2018-04-15T03:03:50.337Z,99.99
2018-04-15T03:04:50.401Z,99.99
2018-04-15T03:05:50.428Z,99.99
2018-04-15T03:06:50.495Z,99.99
2018-04-15T03:07:50.513Z,99.99
2018-04-15T03:08:50.558Z,99.99
2018-04-15T03:09:50.606Z,99.99
2018-04-15T03:10:50.678Z,99.99
2018-04-15T03:11:50.701Z,99.99
2018-04-15T03:12:50.743Z,99.99
2018-04-15T03:13:50.789Z,99.99
2018-04-15T03:14:50.835Z,99.99
2018-04-15T03:15:50.905Z,99.99
2018-04-15T03:16:50.923Z,99.99
2018-04-15T03:17:50.970Z,99.99
2018-04-15T03:18:51.014Z,99.99
2018-04-15T03:19:51.062Z,99.99
2018-04-15T03:20:51.145Z,99.99
2018-04-15T03:21:51.150Z,99.99
2018-04-15T03:22:51.198Z,99.99
2018-04-15T03:23:51.243Z,99.99
2018-04-15T03:24:51.298Z,99.99
2018-04-15T03:25:51.356Z,99.99
2018-04-15T03:26:51.379Z,99.99
2018-04-15T03:27:51.429Z,99.99
2018-04-15T03:28:52.083Z,99.99
2018-04-15T03:29:51.535Z,99.99
2018-04-15T03:30:51.585Z,99.99
2018-04-15T03:31:51.609Z,99.99
2018-04-15T03:32:51.653Z,99.99
2018-04-15T03:33:51.700Z,99.99
2018-04-15T03:34:51.747Z,99.99
2018-04-15T03:35:51.813Z,99.99
2018-04-15T03:36:51.857Z,99.99
2018-04-15T03:37:51.884Z,99.99
2018-04-15T03:38:51.926Z,99.99
2018-04-15T03:39:51.971Z,99.99
2018-04-15T03:40:52.018Z,99.99
2018-04-15T03:41:52.090Z,99.99
2018-04-15T03:42:52.106Z,99.99
2018-04-15T03:43:52.171Z,99.99
2018-04-15T03:44:52.202Z,99.99
2018-04-15T03:45:52.244Z,99.99
2018-04-15T03:46:52.321Z,99.99
2018-04-15T03:47:52.334Z,99.99
2018-04-15T03:48:52.386Z,99.99
2018-04-15T03:49:52.424Z,99.99
2018-04-15T03:50:52.472Z,99.99
2018-04-15T03:51:52.560Z,99.99
2018-04-15T03:52:52.563Z,99.99
2018-04-15T03:53:52.609Z,99.99
2018-04-15T03:54:52.659Z,99.99
2018-04-15T03:55:52.698Z,99.99
2018-04-15T03:56:52.768Z,99.99
2018-04-15T03:57:52.823Z,99.99
2018-04-15T03:58:52.835Z,99.99
2018-04-15T03:59:52.884Z,99.99
2018-04-15T04:00:52.925Z,99.99
2018-04-15T04:01:52.970Z,99.99
2018-04-15T04:02:53.041Z,99.99
2018-04-15T04:03:53.061Z,99.99
2018-04-15T04:04:53.156Z,99.99
2018-04-15T04:05:53.151Z,99.99
2018-04-15T04:06:53.202Z,99.99
2018-04-15T04:07:53.267Z,99.99
2018-04-15T04:08:54.085Z,99.99
2018-04-15T04:09:53.332Z,99.99
2018-04-15T04:10:53.881Z,99.99
2018-04-15T04:11:53.423Z,99.99
2018-04-15T04:12:53.506Z,99.99
2018-04-15T04:13:53.513Z,99.99
2018-04-15T04:14:53.565Z,99.99
2018-04-15T04:15:53.607Z,99.99
2018-04-15T04:16:54.381Z,99.99
2018-04-15T04:17:53.734Z,99.99
2018-04-15T04:18:53.741Z,99.99
2018-04-15T04:19:53.785Z,99.99
2018-04-15T04:20:53.830Z,99.99
2018-04-15T04:21:53.881Z,99.99
2018-04-15T04:22:53.949Z,99.99
2018-04-15T04:23:53.993Z,99.99
2018-04-15T04:24:54.012Z,99.99
2018-04-15T04:25:54.061Z,99.99
2018-04-15T04:26:54.103Z,99.99
2018-04-15T04:27:54.181Z,99.99
2018-04-15T04:28:54.216Z,99.99
2018-04-15T04:29:54.241Z,99.99
2018-04-15T04:30:54.286Z,99.99
2018-04-15T04:31:54.331Z,99.99
2018-04-15T04:32:54.376Z,99.99
2018-04-15T04:33:54.455Z,99.99
2018-04-15T04:34:54.465Z,99.99
2018-04-15T04:35:54.511Z,99.99
2018-04-15T04:36:54.556Z,99.99
2018-04-15T04:37:54.606Z,99.99
2018-04-15T04:38:54.685Z,99.99
2018-04-15T04:39:54.692Z,99.99
2018-04-15T04:40:54.737Z,99.99
2018-04-15T04:41:54.785Z,99.99
2018-04-15T04:42:54.830Z,99.99
2018-04-15T04:43:54.906Z,99.99
2018-04-15T04:44:54.922Z,99.99
2018-04-15T04:45:54.966Z,99.99
2018-04-15T04:46:55.011Z,99.99
2018-04-15T04:47:55.054Z,99.99
2018-04-15T04:48:55.123Z,99.99
2018-04-15T04:49:55.181Z,99.99
2018-04-15T04:50:55.195Z,99.99
2018-04-15T04:51:55.238Z,99.99
2018-04-15T04:52:55.281Z,99.99
2018-04-15T04:53:55.326Z,99.99
2018-04-15T04:54:55.412Z,99.99
2018-04-15T04:55:55.416Z,99.99
2018-04-15T04:56:55.464Z,99.99
2018-04-15T04:57:55.506Z,99.99
2018-04-15T04:58:55.556Z,99.99
2018-04-15T04:59:55.629Z,99.99
2018-04-15T05:00:55.643Z,99.99
2018-04-15T05:01:55.691Z,99.99
2018-04-15T05:02:55.733Z,99.99
2018-04-15T05:03:55.791Z,99.99
2018-04-15T05:04:55.851Z,99.99
2018-04-15T05:05:55.895Z,99.99
2018-04-15T05:06:55.919Z,99.99
2018-04-15T05:07:55.961Z,99.99
2018-04-15T05:08:56.008Z,99.99
2018-04-15T05:09:56.054Z,99.99
2018-04-15T05:10:56.131Z,99.99
2018-04-15T05:11:56.146Z,99.99
2018-04-15T05:12:56.189Z,99.99
2018-04-15T05:13:56.231Z,99.99
2018-04-15T05:14:56.277Z,99.99
2018-04-15T05:15:56.358Z,99.99
2018-04-15T05:16:56.370Z,99.99
2018-04-15T05:17:56.413Z,99.99
2018-04-15T05:18:56.460Z,99.99
2018-04-15T05:19:56.507Z,99.99
2018-04-15T05:20:56.573Z,99.99
2018-04-15T05:21:56.617Z,99.99
2018-04-15T05:22:56.643Z,99.99
2018-04-15T05:23:56.686Z,99.99
2018-04-15T05:24:56.730Z,99.99
2018-04-15T05:25:56.776Z,99.99
2018-04-15T05:26:56.863Z,99.99
2018-04-15T05:27:56.873Z,99.99
2018-04-15T05:28:56.913Z,99.99
2018-04-15T05:29:56.956Z,99.99
2018-04-15T05:30:57.004Z,99.99
2018-04-15T05:31:57.072Z,99.99
2018-04-15T05:32:57.117Z,99.99
2018-04-15T05:33:57.141Z,99.99
2018-04-15T05:34:57.184Z,99.99
2018-04-15T05:35:57.235Z,99.99
2018-04-15T05:36:57.274Z,99.99
2018-04-15T05:37:57.362Z,99.99
2018-04-15T05:38:57.370Z,99.99
2018-04-15T05:39:57.419Z,99.99
2018-04-15T05:40:57.456Z,99.99
2018-04-15T05:41:57.511Z,99.99
2018-04-15T05:42:57.591Z,99.99
2018-04-15T05:43:57.599Z,99.99
2018-04-15T05:44:57.640Z,99.99
2018-04-15T05:45:57.685Z,99.99
2018-04-15T05:46:57.732Z,99.99
2018-04-15T05:47:57.803Z,99.99
2018-04-15T05:48:57.848Z,99.99
2018-04-15T05:49:57.872Z,99.99
2018-04-15T05:50:57.915Z,99.99
2018-04-15T05:51:57.961Z,99.99
2018-04-15T05:52:58.009Z,99.99
2018-04-15T05:53:58.077Z,99.99
2018-04-15T05:54:58.110Z,99.99
2018-04-15T05:55:58.144Z,99.99
2018-04-15T05:56:58.189Z,99.99
2018-04-15T05:57:58.239Z,99.99
2018-04-15T05:58:58.313Z,99.99
2018-04-15T05:59:58.329Z,99.99
2018-04-15T06:00:58.376Z,99.99
2018-04-15T06:01:58.420Z,99.99
2018-04-15T06:02:58.470Z,99.99
2018-04-15T06:03:58.547Z,99.99
2018-04-15T06:04:58.563Z,99.99
2018-04-15T06:05:58.626Z,99.99
2018-04-15T06:06:58.652Z,99.99
2018-04-15T06:07:58.702Z,99.99
2018-04-15T06:08:58.784Z,99.99
2018-04-15T06:09:58.791Z,99.99
2018-04-15T06:10:58.836Z,99.99
2018-04-15T06:11:58.884Z,99.99
2018-04-15T06:12:58.930Z,99.99
2018-04-15T06:13:59.016Z,99.99
2018-04-15T06:14:59.089Z,99.99
2018-04-15T06:15:59.071Z,99.99
2018-04-15T06:16:59.116Z,99.99
2018-04-15T06:17:59.165Z,99.99
2018-04-15T06:18:59.240Z,99.99
2018-04-15T06:19:59.259Z,99.99
2018-04-15T06:20:59.317Z,99.99
2018-04-15T06:21:59.354Z,99.99
2018-04-15T06:22:59.397Z,99.99
2018-04-15T06:23:59.466Z,99.99
2018-04-15T06:24:59.489Z,99.99
2018-04-15T06:25:59.534Z,99.99
2018-04-15T06:26:59.605Z,99.99
2018-04-15T06:27:59.631Z,99.99
2018-04-15T06:28:59.677Z,99.99
2018-04-15T06:29:59.722Z,97.89
2018-04-15T06:30:59.769Z,99.60
2018-04-15T06:31:59.855Z,99.60
2018-04-15T06:32:59.897Z,99.32
2018-04-15T06:33:59.909Z,98.74
2018-04-15T06:34:59.956Z,98.36
2018-04-15T06:36:00.010Z,97.41
2018-04-15T06:37:00.094Z,97.79
2018-04-15T06:38:00.095Z,98.36
2018-04-15T06:39:00.143Z,98.13
2018-04-15T06:40:00.190Z,98.13
2018-04-15T06:41:00.236Z,97.46
2018-04-15T06:42:00.309Z,97.27
2018-04-15T06:43:00.329Z,98.03
2018-04-15T06:44:00.377Z,96.89
2018-04-15T06:45:00.424Z,97.36
2018-04-15T06:46:00.472Z,97.56
2018-04-15T06:47:00.539Z,97.36
2018-04-15T06:48:00.590Z,96.22
2018-04-15T06:49:00.611Z,95.17
2018-04-15T06:50:00.657Z,95.84
2018-04-15T06:51:00.706Z,95.46
2018-04-15T06:52:00.779Z,95.03
2018-04-15T06:53:00.822Z,94.93
2018-04-15T06:54:00.845Z,96.17
2018-04-15T06:55:00.892Z,95.32
2018-04-15T06:56:00.941Z,96.27
2018-04-15T06:57:01.022Z,97.03
2018-04-15T06:58:01.035Z,95.70
2018-04-15T06:59:01.084Z,95.98
2018-04-15T07:00:01.129Z,95.61
2018-04-15T07:01:01.176Z,95.61
2018-04-15T07:02:01.255Z,95.41
2018-04-15T07:03:01.272Z,96.17
2018-04-15T07:04:01.322Z,95.03
2018-04-15T07:05:01.363Z,94.84
2018-04-15T07:06:01.414Z,95.08
2018-04-15T07:07:01.494Z,94.65
2018-04-15T07:08:01.511Z,95.61
2018-04-15T07:09:01.556Z,95.84
2018-04-15T07:10:01.606Z,96.70
2018-04-15T07:11:01.648Z,95.75
2018-04-15T07:12:01.722Z,96.32
2018-04-15T07:13:01.746Z,97.08
2018-04-15T07:14:01.846Z,97.46
2018-04-15T07:15:01.840Z,96.32
2018-04-15T07:16:01.891Z,96.22
2018-04-15T07:17:01.941Z,97.13
2018-04-15T07:18:02.007Z,96.80
2018-04-15T07:19:02.032Z,97.80
2018-04-15T07:20:02.079Z,97.75
2018-04-15T07:21:02.126Z,97.66
2018-04-15T07:22:02.173Z,98.13
2018-04-15T07:23:02.247Z,96.13
2018-04-15T07:24:02.270Z,95.32
2018-04-15T07:25:02.321Z,94.79
2018-04-15T07:26:02.365Z,95.56
2018-04-15T07:27:02.415Z,95.41
2018-04-15T07:28:02.485Z,96.22
2018-04-15T07:29:02.507Z,95.27
2018-04-15T07:30:03.099Z,95.56
2018-04-15T07:31:02.603Z,95.46
2018-04-15T07:32:02.653Z,95.46
2018-04-15T07:33:02.700Z,95.17
2018-04-15T07:34:02.748Z,96.13
2018-04-15T07:35:02.834Z,95.56
2018-04-15T07:36:02.841Z,96.22
2018-04-15T07:37:02.890Z,96.89
2018-04-15T07:38:02.939Z,96.13
2018-04-15T07:39:02.983Z,94.89
2018-04-15T07:40:03.085Z,94.79
2018-04-15T07:41:03.080Z,94.03
2018-04-15T07:42:03.128Z,94.03
2018-04-15T07:43:03.179Z,92.88
2018-04-15T07:44:03.225Z,92.69
2018-04-15T07:45:03.294Z,91.27
2018-04-15T07:46:03.344Z,90.79
2018-04-15T07:47:03.369Z,92.07
2018-04-15T07:48:03.418Z,91.50
2018-04-15T07:49:03.467Z,92.74
2018-04-15T07:50:03.508Z,92.93
2018-04-15T07:51:03.582Z,89.78
2018-04-15T07:52:03.607Z,91.02
2018-04-15T07:53:03.655Z,90.02
2018-04-15T07:54:03.703Z,89.16
2018-04-15T07:55:03.751Z,88.87
2018-04-15T07:56:03.826Z,90.02
2018-04-15T07:57:03.849Z,90.06
2018-04-15T07:58:03.894Z,88.68
2018-04-15T07:59:03.948Z,88.63
2018-04-15T08:00:03.990Z,87.63
2018-04-15T08:01:05.103Z,86.82
2018-04-15T08:02:04.089Z,85.86
2018-04-15T08:03:04.136Z,85.86
2018-04-15T08:04:04.192Z,86.24
2018-04-15T08:05:05.103Z,85.96
2018-04-15T08:06:04.343Z,85.77
2018-04-15T08:07:04.329Z,84.62
2018-04-15T08:08:04.387Z,87.01
2018-04-15T08:09:04.428Z,85.33
2018-04-15T08:10:04.479Z,85.42
2018-04-15T08:11:04.565Z,84.28
2018-04-15T08:12:04.572Z,83.99
2018-04-15T08:13:04.619Z,84.85
2018-04-15T08:14:04.668Z,86.47
2018-04-15T08:15:04.719Z,86.52
2018-04-15T08:16:04.789Z,85.18
2018-04-15T08:17:05.663Z,84.61
2018-04-15T08:18:04.864Z,83.56
2018-04-15T08:19:04.915Z,82.51
2018-04-15T08:20:04.961Z,84.32
2018-04-15T08:21:05.041Z,84.61
2018-04-15T08:22:05.059Z,85.09
2018-04-15T08:23:05.133Z,83.08
2018-04-15T08:24:05.159Z,82.89
2018-04-15T08:25:05.207Z,82.79
2018-04-15T08:26:05.254Z,82.12
2018-04-15T08:27:05.328Z,81.45
2018-04-15T08:28:05.352Z,83.46
2018-04-15T08:29:05.403Z,83.17
2018-04-15T08:30:05.456Z,83.31
2018-04-15T08:31:05.509Z,83.40
2018-04-15T08:32:05.575Z,81.21
2018-04-15T08:33:05.598Z,80.02
2018-04-15T08:34:06.605Z,80.30
2018-04-15T08:35:06.109Z,81.07
2018-04-15T08:36:05.746Z,81.11
2018-04-15T08:37:05.818Z,80.44
2018-04-15T08:38:05.890Z,80.48
2018-04-15T08:39:05.894Z,79.91
2018-04-15T08:40:05.948Z,78.03
2018-04-15T08:41:05.994Z,76.98
2018-04-15T08:42:06.049Z,76.31
2018-04-15T08:43:06.119Z,76.15
2018-04-15T08:44:06.141Z,76.82
2018-04-15T08:45:06.191Z,75.39
2018-04-15T08:46:06.241Z,76.44
2018-04-15T08:47:06.293Z,76.15
2018-04-15T08:48:06.365Z,74.97
2018-04-15T08:49:06.394Z,74.68
2018-04-15T08:50:06.441Z,75.98
2018-04-15T08:51:06.491Z,76.75
2018-04-15T08:52:06.540Z,75.22
2018-04-15T08:53:06.615Z,78.47
2018-04-15T08:54:06.647Z,77.51
2018-04-15T08:55:06.689Z,79.14
2018-04-15T08:56:06.744Z,77.42
2018-04-15T08:57:06.792Z,78.38
2018-04-15T08:58:06.876Z,78.38
2018-04-15T08:59:08.610Z,79.18
2018-04-15T09:00:06.942Z,78.80
2018-04-15T09:01:06.991Z,79.43
2018-04-15T09:02:07.045Z,79.28
2018-04-15T09:03:07.114Z,79.72
2018-04-15T09:04:07.142Z,80.14
2018-04-15T09:05:07.190Z,78.95
2018-04-15T09:06:07.243Z,79.33
2018-04-15T09:07:07.340Z,80.16
2018-04-15T09:08:07.340Z,81.02
2018-04-15T09:09:07.405Z,81.02
2018-04-15T09:10:07.445Z,81.49
2018-04-15T09:11:07.493Z,82.60
2018-04-15T09:12:07.570Z,82.70
2018-04-15T09:13:07.596Z,84.23
2018-04-15T09:14:07.672Z,83.50
2018-04-15T09:15:07.696Z,82.12
2018-04-15T09:16:07.741Z,82.60
2018-04-15T09:17:07.792Z,82.45
2018-04-15T09:18:07.853Z,80.92
2018-04-15T09:19:07.914Z,81.02
2018-04-15T09:20:07.944Z,79.96
2018-04-15T09:21:07.992Z,80.06
2018-04-15T09:22:08.045Z,80.02
2018-04-15T09:23:08.616Z,79.64
2018-04-15T09:24:08.168Z,79.73
2018-04-15T09:25:08.196Z,79.77
2018-04-15T09:26:08.265Z,78.81
2018-04-15T09:27:08.291Z,78.81
2018-04-15T09:28:08.340Z,77.99
2018-04-15T09:29:08.417Z,74.26
2018-04-15T09:30:08.453Z,73.97
2018-04-15T09:31:08.518Z,73.88
2018-04-15T09:32:08.550Z,74.07
2018-04-15T09:33:08.592Z,74.45
2018-04-15T09:34:08.641Z,74.99
2018-04-15T09:35:08.692Z,75.76
2018-04-15T09:36:08.789Z,75.85
2018-04-15T09:37:08.790Z,76.48
2018-04-15T09:38:08.844Z,76.96
2018-04-15T09:39:08.893Z,76.86
2018-04-15T09:40:08.943Z,77.28
2018-04-15T09:41:09.024Z,75.37
2018-04-15T09:42:09.042Z,76.14
2018-04-15T09:43:09.098Z,76.39
2018-04-15T09:44:09.143Z,77.06
2018-04-15T09:45:09.191Z,76.57
2018-04-15T09:46:09.270Z,77.15
2018-04-15T09:47:09.317Z,77.63
2018-04-15T09:48:09.344Z,78.49
2018-04-15T09:49:09.390Z,78.30
2018-04-15T09:50:09.444Z,78.39
2018-04-15T09:51:09.491Z,78.11
2018-04-15T09:52:09.576Z,77.59
2018-04-15T09:53:09.591Z,78.11
2018-04-15T09:54:09.640Z,77.44
2018-04-15T09:55:09.692Z,77.59
2018-04-15T09:56:09.741Z,77.97
2018-04-15T09:57:09.828Z,78.45
2018-04-15T09:58:09.847Z,78.26
2018-04-15T09:59:09.913Z,78.01
2018-04-15T10:00:09.938Z,77.11
2018-04-15T10:01:09.988Z,77.74
2018-04-15T10:02:10.078Z,78.79
2018-04-15T10:03:10.088Z,79.36
2018-04-15T10:04:10.139Z,79.27
2018-04-15T10:05:10.185Z,79.56
2018-04-15T10:06:10.235Z,80.04
2018-04-15T10:07:10.319Z,79.79
2018-04-15T10:08:10.336Z,78.26
2018-04-15T10:09:10.385Z,77.87
2018-04-15T10:10:10.432Z,79.35
2018-04-15T10:11:10.482Z,77.63
2018-04-15T10:12:10.556Z,75.62
2018-04-15T10:13:10.633Z,76.23
2018-04-15T10:14:10.629Z,75.47
2018-04-15T10:15:10.680Z,77.13
2018-04-15T10:16:10.728Z,74.16
2018-04-15T10:17:10.780Z,74.74
2018-04-15T10:18:10.873Z,74.68
2018-04-15T10:19:10.880Z,73.91
2018-04-15T10:20:10.930Z,74.82
2018-04-15T10:21:10.977Z,71.04
2018-04-15T10:22:11.028Z,73.05
2018-04-15T10:23:11.099Z,73.09
2018-04-15T10:24:11.180Z,71.81
2018-04-15T10:25:11.177Z,71.33
2018-04-15T10:26:11.227Z,71.04
2018-04-15T10:27:11.278Z,71.14
2018-04-15T10:28:11.336Z,71.04
2018-04-15T10:29:11.433Z,71.04
2018-04-15T10:30:11.430Z,72.09
2018-04-15T10:31:11.477Z,70.81
2018-04-15T10:32:11.530Z,71.97
2018-04-15T10:33:11.582Z,74.30
2018-04-15T10:34:11.652Z,71.23
2018-04-15T10:35:11.681Z,72.90
2018-04-15T10:36:11.739Z,69.83
2018-04-15T10:37:11.779Z,69.96
2018-04-15T10:38:11.839Z,71.72
2018-04-15T10:39:11.919Z,68.37
2018-04-15T10:40:11.983Z,67.60
2018-04-15T10:41:11.987Z,68.12
2018-04-15T10:42:12.035Z,69.46
2018-04-15T10:43:12.087Z,67.67
2018-04-15T10:44:12.144Z,64.76
2018-04-15T10:45:12.228Z,64.56
2018-04-15T10:46:12.241Z,65.65
2018-04-15T10:47:12.292Z,67.69
2018-04-15T10:48:12.343Z,70.09
2018-04-15T10:49:12.393Z,71.14
2018-04-15T10:50:12.480Z,72.44
2018-04-15T10:51:12.497Z,72.79
2018-04-15T10:52:12.548Z,74.13
2018-04-15T10:53:12.599Z,74.61
2018-04-15T10:54:12.653Z,74.57
2018-04-15T10:55:12.729Z,74.85
2018-04-15T10:56:12.768Z,75.09
2018-04-15T10:57:12.798Z,75.66
2018-04-15T10:58:12.856Z,76.56
2018-04-15T10:59:12.906Z,73.88
2018-04-15T11:00:13.010Z,73.82
2018-04-15T11:01:13.005Z,73.05
2018-04-15T11:02:13.063Z,73.05
2018-04-15T11:03:13.106Z,72.42
2018-04-15T11:04:13.155Z,73.47
2018-04-15T11:05:13.251Z,73.19
2018-04-15T11:06:13.264Z,71.46
2018-04-15T11:07:13.314Z,72.42
2018-04-15T11:08:13.360Z,70.47
2018-04-15T11:09:13.409Z,70.66
2018-04-15T11:10:13.485Z,71.68
2018-04-15T11:11:13.533Z,72.77
2018-04-15T11:12:13.560Z,73.82
2018-04-15T11:13:13.613Z,74.11
2018-04-15T11:14:13.671Z,76.06
2018-04-15T11:15:13.721Z,76.35
2018-04-15T11:16:13.786Z,73.90
2018-04-15T11:17:13.815Z,71.21
2018-04-15T11:18:13.870Z,71.53
2018-04-15T11:19:13.913Z,71.72
2018-04-15T11:20:13.964Z,72.24
2018-04-15T11:21:14.048Z,67.83
2018-04-15T11:22:14.067Z,69.84
2018-04-15T11:23:14.118Z,70.03
2018-04-15T11:24:14.168Z,70.13
2018-04-15T11:25:14.221Z,69.93
2018-04-15T11:26:14.295Z,68.79
2018-04-15T11:27:14.347Z,68.79
2018-04-15T11:28:14.371Z,71.51
2018-04-15T11:29:14.480Z,70.01
2018-04-15T11:30:14.475Z,68.18
2018-04-15T11:31:14.531Z,66.68
2018-04-15T11:32:14.602Z,63.67
2018-04-15T11:33:14.631Z,62.42
2018-04-15T11:34:14.683Z,62.71
2018-04-15T11:35:14.731Z,63.45
2018-04-15T11:36:14.784Z,64.72
2018-04-15T11:37:14.859Z,67.28
2018-04-15T11:38:14.886Z,69.48
2018-04-15T11:39:14.940Z,69.93
2018-04-15T11:40:14.992Z,70.21
2018-04-15T11:41:15.046Z,71.33
2018-04-15T11:42:15.139Z,72.09
2018-04-15T11:43:15.149Z,72.86
2018-04-15T11:44:15.197Z,72.77
2018-04-15T11:45:15.300Z,73.15
2018-04-15T11:46:15.299Z,72.58
2018-04-15T11:47:15.381Z,71.56
2018-04-15T11:48:15.404Z,71.46
2018-04-15T11:49:15.454Z,70.41
2018-04-15T11:50:15.504Z,70.98
2018-04-15T11:51:15.563Z,71.17
2018-04-15T11:52:15.696Z,70.41
2018-04-15T11:53:15.659Z,70.50
2018-04-15T11:54:15.708Z,69.60
2018-04-15T11:55:15.765Z,70.56
2018-04-15T11:56:15.814Z,72.19
2018-04-15T11:57:16.655Z,70.41
2018-04-15T11:58:15.915Z,69.96
2018-04-15T11:59:15.966Z,68.52
2018-04-15T12:00:16.020Z,68.33
2018-04-15T12:01:16.065Z,67.09
2018-04-15T12:02:16.180Z,67.63
2018-04-15T12:03:16.173Z,68.21
2018-04-15T12:04:16.272Z,68.43
2018-04-15T12:05:16.272Z,69.33
2018-04-15T12:06:16.329Z,67.63
2018-04-15T12:07:16.375Z,66.10
2018-04-15T12:08:16.429Z,65.05
2018-04-15T12:09:16.536Z,64.28
2018-04-15T12:10:16.536Z,64.95
2018-04-15T12:11:16.580Z,66.96
2018-04-15T12:12:16.634Z,64.09
2018-04-15T12:13:16.682Z,64.09
2018-04-15T12:14:16.788Z,63.35
2018-04-15T12:15:16.787Z,61.91
2018-04-15T12:16:16.839Z,61.62
2018-04-15T12:17:16.902Z,60.47
2018-04-15T12:18:16.942Z,60.25
2018-04-15T12:19:17.049Z,60.44
2018-04-15T12:20:17.050Z,61.02
2018-04-15T12:21:17.096Z,61.59
2018-04-15T12:22:17.151Z,63.03
2018-04-15T12:23:17.201Z,60.70
2018-04-15T12:24:17.283Z,60.79
2018-04-15T12:25:17.331Z,62.10
2018-04-15T12:26:17.361Z,62.74
2018-04-15T12:27:19.165Z,63.80
2018-04-15T12:28:17.465Z,64.12
2018-04-15T12:29:17.513Z,64.76
2018-04-15T12:30:17.591Z,65.23
2018-04-15T12:31:17.619Z,65.62
2018-04-15T12:32:17.673Z,66.35
2018-04-15T12:33:17.724Z,66.54
2018-04-15T12:34:17.777Z,68.65
2018-04-15T12:35:17.879Z,68.33
2018-04-15T12:36:17.876Z,69.29
2018-04-15T12:37:17.925Z,69.76
2018-04-15T12:38:17.977Z,69.23
2018-04-15T12:39:18.027Z,69.86
2018-04-15T12:40:18.109Z,70.15
2018-04-15T12:41:18.132Z,70.56
2018-04-15T12:42:18.181Z,69.99
2018-04-15T12:43:18.974Z,69.89
2018-04-15T12:44:24.971Z,69.60
2018-04-15T12:45:18.355Z,70.37
2018-04-15T12:46:18.406Z,70.09
2018-04-15T12:47:18.435Z,70.76
2018-04-15T12:48:18.488Z,71.42
2018-04-15T12:49:18.535Z,72.29
2018-04-15T12:50:18.600Z,72.13
2018-04-15T12:51:18.661Z,70.89
2018-04-15T12:52:18.686Z,70.47
2018-04-15T12:53:18.736Z,71.94